Wilton, ND (58579)

5:12 AM CDT on July 23, 2016 (GMT -0500)
136 Ave NW | | Change Station
Active Advisory: Flash Flood Watch

Elev 1932 ft 46.95 °N, 100.83 °W | Updated 9 seconds ago

Overcast
Overcast
69.3 °F
Feels Like 69.3 °F
N
1.1
Wind Variable Wind from East
Gusts 2.5 mph

Today
High -- | Low -- °F
--% Chance of Precip.
Yesterday
High -- | Low -- °F
Precip. -- in
Pressure 29.82 in
Visibility 10.0 miles
Clouds Overcast 6500 ft
Dew Point 64 °F
Humidity 83%
Rainfall 0.00 in
Snow Depth Not available.
6:11 AM 9:26 PM
Waning Gibbous, 86% visible
METAR KBIS 230952Z 04004KT 10SM OVC065 22/17 A2985 RMK AO2 SLP098 T02170172 $
Pressure 29.82 in
Visibility 10.0 miles
Clouds Overcast 6500 ft
Dew Point 64 °F
Humidity 83%
Rainfall 0.00 in
Snow Depth Not available.
6:11 AM 9:26 PM
Waning Gibbous, 86% visible
METAR KBIS 230952Z 04004KT 10SM OVC065 22/17 A2985 RMK AO2 SLP098 T02170172 $

10-Day Weather Forecast

Almanac

Astronomy

Jul. 23, 2016 Rise Set
Actual Time
Civil Twilight
Nautical Twilight
Astronomical Twilight
Moon
Length of Visible Light
Length of Day
Tomorrow will be .
, % of the Moon is Illuminated

Today's Extremes

State Highs State Lows

Community

WunderPhotos

Upload Photos

1,926,789 photos uploaded!

WunderBlog® & News

Nearby

Air Quality

  Air Quality AQ Index Pollutant
Not available.

Snow Depth

Station Depth Elevation

Earthquake Activity

City Distance Mag. Time & Date
Minimum magnitude displayed is 2.5.

Coastal Water Temperatures

Place Temperature

Stations

Nearby Weather Stations

Station Location Temp. Windchill Dew Point Humidity Wind Precip. Elev Updated Type
                   

Watches & Warnings

Flash Flood Watch
Issued: 2:52 AM MDT Jul. 23, 2016 – National Weather Service

... Flash Flood Watch remains in effect until 1 PM CDT /noon MDT/
this afternoon...

The Flash Flood Watch continues for

* portions of south central North Dakota and southeast North
Dakota... including the following areas... in south central
North Dakota... Burleigh... Emmons... Grant... Kidder... McLean...
Mercer... Morton... Oliver... Sheridan... Sioux and Wells. In
southeast North Dakota... Dickey... Foster... La Moure... Logan...
McIntosh and Stutsman.

* Until 1 PM CDT /noon MDT/ this afternoon.

* Heavy rainfall possible... with rainfall rates possibly exceeding
2 inches per hour.

* Excessive runoff will be possible that may produce flooding of
creeks... streams... and low lying areas.

Precautionary/preparedness actions...

A Flash Flood Watch means that conditions may develop that lead
to flash flooding. Flash flooding is a very dangerous situation.

You should monitor later forecasts and be prepared to take action
should flash flood warnings be issued.